createdAt,value
2022-11-14T00:00:09.980Z,25.57
2022-11-14T00:03:16.038Z,24.40
2022-11-14T00:06:22.264Z,25.57
2022-11-14T00:09:30.028Z,25.07
2022-11-14T00:12:36.292Z,24.47
2022-11-14T00:15:42.352Z,23.73
2022-11-14T00:18:48.173Z,25.17
2022-11-14T00:21:54.667Z,24.50
2022-11-14T00:25:02.247Z,24.40
2022-11-14T00:28:08.257Z,23.97
2022-11-14T00:31:14.021Z,25.83
2022-11-14T00:34:19.777Z,26.43
2022-11-14T00:37:27.007Z,24.43
2022-11-14T00:40:34.144Z,24.10
2022-11-14T00:43:36.782Z,24.60
2022-11-14T00:46:42.568Z,25.30
2022-11-14T00:49:48.322Z,25.47
2022-11-14T00:52:54.061Z,24.80
2022-11-14T00:56:01.469Z,23.73
2022-11-14T00:59:07.777Z,25.03
2022-11-14T01:02:13.860Z,26.13
2022-11-14T01:05:19.930Z,24.60
2022-11-14T01:08:25.570Z,25.93
2022-11-14T01:11:32.609Z,26.00
2022-11-14T01:14:38.688Z,25.93
2022-11-14T01:17:44.697Z,26.53
2022-11-14T01:20:50.987Z,25.63
2022-11-14T01:23:57.367Z,27.03
2022-11-14T01:27:04.684Z,26.13
2022-11-14T01:30:11.489Z,25.93
2022-11-14T01:33:17.283Z,23.30
2022-11-14T01:36:23.195Z,26.30
2022-11-14T01:39:29.040Z,26.83
2022-11-14T01:42:36.446Z,26.30
2022-11-14T01:45:53.559Z,26.83
2022-11-14T01:49:03.948Z,25.67
2022-11-14T01:52:13.375Z,26.20
2022-11-14T01:55:19.360Z,26.30
2022-11-14T01:58:28.792Z,24.83
2022-11-14T02:01:37.909Z,25.67
2022-11-14T02:04:48.001Z,26.40
2022-11-14T02:07:54.018Z,27.63
2022-11-14T02:11:00.042Z,26.50
2022-11-14T02:14:08.193Z,27.67
2022-11-14T02:17:29.166Z,26.43
2022-11-14T02:20:43.114Z,27.57
2022-11-14T02:23:49.316Z,24.90
2022-11-14T02:26:55.266Z,23.87
2022-11-14T02:30:05.313Z,25.23
2022-11-14T02:33:11.827Z,26.23
2022-11-14T02:36:19.024Z,21.93
2022-11-14T02:39:25.385Z,25.43
2022-11-14T02:42:31.270Z,26.77
2022-11-14T02:45:37.199Z,26.33
2022-11-14T02:48:42.969Z,25.80
2022-11-14T02:51:49.920Z,23.30
2022-11-14T02:54:55.793Z,24.60
2022-11-14T02:58:01.547Z,25.97
2022-11-14T03:01:20.328Z,23.50
2022-11-14T03:04:27.588Z,24.77
2022-11-14T03:07:35.445Z,26.97
2022-11-14T03:10:41.622Z,26.20
2022-11-14T03:13:47.428Z,25.30
2022-11-14T03:16:55.592Z,26.53
2022-11-14T03:20:01.569Z,22.83
2022-11-14T03:23:08.813Z,25.17
2022-11-14T03:26:16.080Z,26.43
2022-11-14T03:29:22.237Z,24.77
2022-11-14T03:32:28.128Z,24.73
2022-11-14T03:35:33.889Z,25.40
2022-11-14T03:38:41.049Z,24.73
2022-11-14T03:41:46.986Z,24.33
2022-11-14T03:44:52.622Z,21.27
2022-11-14T03:47:58.561Z,17.83
2022-11-14T03:51:04.585Z,21.10
2022-11-14T03:54:12.073Z,21.13
2022-11-14T03:57:18.268Z,21.70
2022-11-14T04:00:24.229Z,15.27
2022-11-14T04:03:30.465Z,25.03
2022-11-14T04:06:36.494Z,23.97
2022-11-14T04:09:44.889Z,26.00
2022-11-14T04:12:51.395Z,24.03
2022-11-14T04:15:57.986Z,24.07
2022-11-14T04:19:03.681Z,25.77
2022-11-14T04:22:09.584Z,26.23
2022-11-14T04:25:16.990Z,23.37
2022-11-14T04:28:22.854Z,24.07
2022-11-14T04:31:29.017Z,26.23
2022-11-14T04:34:34.839Z,25.10
2022-11-14T04:37:40.732Z,26.17
2022-11-14T04:40:51.737Z,22.67
2022-11-14T04:43:57.806Z,24.37
2022-11-14T04:47:03.814Z,25.77
2022-11-14T04:50:10.621Z,26.07
2022-11-14T04:53:16.436Z,24.53
2022-11-14T04:56:25.276Z,23.57
2022-11-14T04:59:31.425Z,23.90
2022-11-14T05:02:37.164Z,24.37
2022-11-14T05:05:43.034Z,21.70
2022-11-14T05:08:49.489Z,24.07
2022-11-14T05:11:56.724Z,27.63
2022-11-14T05:15:03.149Z,25.33
2022-11-14T05:18:08.832Z,28.00
2022-11-14T05:21:15.946Z,25.97
2022-11-14T05:24:21.576Z,25.73
2022-11-14T05:27:30.023Z,23.87
2022-11-14T05:30:35.890Z,26.43
2022-11-14T05:33:42.028Z,24.93
2022-11-14T05:36:48.146Z,26.40
2022-11-14T05:39:54.127Z,26.33
2022-11-14T05:43:01.420Z,23.60
2022-11-14T05:46:08.947Z,25.07
2022-11-14T05:49:17.972Z,26.07
2022-11-14T05:52:27.362Z,26.37
2022-11-14T05:55:33.629Z,26.27
2022-11-14T05:58:41.210Z,21.77
2022-11-14T06:01:47.158Z,26.27
2022-11-14T06:04:53.105Z,23.93
2022-11-14T06:07:59.589Z,26.40
2022-11-14T06:11:08.297Z,20.37
2022-11-14T06:14:15.618Z,25.00
2022-11-14T06:17:21.227Z,24.40
2022-11-14T06:20:26.959Z,26.87
2022-11-14T06:23:32.827Z,24.10
2022-11-14T06:26:39.011Z,24.30
2022-11-14T06:29:46.406Z,23.07
2022-11-14T06:32:57.313Z,25.23
2022-11-14T06:36:05.159Z,23.90
2022-11-14T06:39:11.135Z,25.37
2022-11-14T06:42:17.479Z,25.20
2022-11-14T06:45:24.833Z,24.83
2022-11-14T06:48:31.391Z,25.87
2022-11-14T06:51:37.597Z,25.97
2022-11-14T06:54:43.393Z,25.33
2022-11-14T06:57:54.596Z,26.57
2022-11-14T07:01:06.386Z,24.07
2022-11-14T07:04:12.473Z,24.63
2022-11-14T07:07:18.124Z,23.43
2022-11-14T07:10:23.669Z,25.50
2022-11-14T07:13:29.324Z,26.63
2022-11-14T07:16:36.976Z,21.10
2022-11-14T07:19:42.974Z,24.63
2022-11-14T07:22:48.889Z,26.13
2022-11-14T07:25:55.199Z,27.20
2022-11-14T07:29:02.718Z,25.93
2022-11-14T07:32:10.016Z,24.83
2022-11-14T07:35:16.014Z,24.73
2022-11-14T07:38:21.985Z,26.23
2022-11-14T07:41:27.703Z,22.13
2022-11-14T07:44:33.366Z,24.53
2022-11-14T07:47:40.566Z,21.00
2022-11-14T07:50:47.609Z,25.10
2022-11-14T07:53:54.144Z,20.53
2022-11-14T07:57:00.028Z,26.03
2022-11-14T08:00:06.535Z,21.83
2022-11-14T08:03:13.925Z,22.13
2022-11-14T08:06:19.885Z,24.10
2022-11-14T08:09:25.774Z,24.77
2022-11-14T08:12:31.873Z,24.23
2022-11-14T08:15:38.004Z,25.97
2022-11-14T08:18:45.689Z,24.87
2022-11-14T08:21:51.937Z,19.23
2022-11-14T08:24:57.770Z,18.83
2022-11-14T08:28:03.745Z,21.07
2022-11-14T08:31:10.142Z,21.57
2022-11-14T08:34:17.387Z,19.80
2022-11-14T08:37:29.319Z,21.60
2022-11-14T08:40:35.312Z,21.77
2022-11-14T08:43:40.983Z,20.53
2022-11-14T08:46:46.549Z,19.73
2022-11-14T08:49:53.660Z,21.13
2022-11-14T08:52:59.557Z,20.37
2022-11-14T08:56:05.786Z,18.83
2022-11-14T08:59:11.795Z,22.27
2022-11-14T09:02:18.376Z,19.57
2022-11-14T09:05:26.128Z,19.37
2022-11-14T09:08:32.356Z,20.60
2022-11-14T09:11:38.571Z,19.43
2022-11-14T09:14:44.955Z,19.77
2022-11-14T09:17:54.212Z,18.83
2022-11-14T09:21:02.983Z,17.87
2022-11-14T09:24:09.510Z,17.87
2022-11-14T09:27:15.581Z,20.93
2022-11-14T09:30:22.631Z,19.60
2022-11-14T09:33:28.964Z,17.98
2022-11-14T09:36:36.308Z,19.83
2022-11-14T09:39:42.280Z,19.65
2022-11-14T09:43:02.806Z,18.10
2022-11-14T09:46:18.586Z,18.50
2022-11-14T09:49:31.581Z,17.60
2022-11-14T09:52:44.992Z,16.08
2022-11-14T09:55:51.049Z,18.17
2022-11-14T09:59:01.663Z,19.77
2022-11-14T10:02:24.977Z,19.05
2022-11-14T10:05:42.328Z,18.05
2022-11-14T10:09:13.766Z,18.35
2022-11-14T10:12:24.993Z,18.77
2022-11-14T10:15:37.429Z,18.40
2022-11-14T10:19:04.420Z,18.90
2022-11-14T10:22:21.745Z,17.30
2022-11-14T10:25:42.503Z,19.50
2022-11-14T10:29:00.163Z,19.37
2022-11-14T10:32:17.804Z,18.07
2022-11-14T10:35:34.819Z,18.23
2022-11-14T10:38:46.113Z,18.63
2022-11-14T10:42:02.006Z,17.73
2022-11-14T10:45:19.613Z,15.10
2022-11-14T10:48:32.338Z,18.47
2022-11-14T10:51:43.401Z,18.57
2022-11-14T10:54:54.481Z,18.23
2022-11-14T10:58:01.562Z,15.87
2022-11-14T11:01:37.337Z,18.03
2022-11-14T11:04:43.805Z,18.37
2022-11-14T11:08:28.660Z,18.50
2022-11-14T11:11:34.505Z,17.27
2022-11-14T11:14:41.713Z,17.77
2022-11-14T11:18:01.259Z,17.27
2022-11-14T11:21:10.089Z,15.77
2022-11-14T11:24:32.742Z,15.07
2022-11-14T11:27:39.214Z,15.13
2022-11-14T11:30:57.964Z,16.70
2022-11-14T11:34:04.878Z,15.13
2022-11-14T11:37:16.991Z,15.03
2022-11-14T11:40:28.686Z,16.33
2022-11-14T11:43:40.549Z,16.40
2022-11-14T11:46:53.713Z,15.70
2022-11-14T11:50:02.137Z,14.77
2022-11-14T11:53:17.583Z,15.73
2022-11-14T11:56:27.447Z,16.53
2022-11-14T11:59:37.872Z,15.57
2022-11-14T12:02:50.128Z,16.48
2022-11-14T12:06:10.965Z,14.53
2022-11-14T12:09:29.506Z,14.52
2022-11-14T12:13:14.213Z,16.02
2022-11-14T12:16:30.089Z,14.63
2022-11-14T12:19:53.848Z,12.67
2022-11-14T12:23:21.194Z,14.50
2022-11-14T12:26:44.646Z,13.55
2022-11-14T12:30:05.196Z,14.40
2022-11-14T12:33:16.863Z,13.75
2022-11-14T12:36:30.944Z,11.67
2022-11-14T12:39:37.392Z,12.87
2022-11-14T12:42:47.724Z,13.33
2022-11-14T12:46:02.227Z,14.37
2022-11-14T12:49:38.150Z,14.13
2022-11-14T12:52:48.682Z,14.10
2022-11-14T12:56:07.971Z,13.37
2022-11-14T12:59:53.130Z,13.25
2022-11-14T13:03:21.764Z,14.40
2022-11-14T13:06:34.957Z,13.02
2022-11-14T13:10:01.693Z,13.30
2022-11-14T13:13:38.458Z,12.45
2022-11-14T13:17:02.227Z,12.73
2022-11-14T13:20:44.971Z,12.32
2022-11-14T13:23:58.429Z,13.30
2022-11-14T13:27:45.315Z,13.20
2022-11-14T13:31:08.646Z,13.20
2022-11-14T13:34:34.249Z,14.48
2022-11-14T13:38:00.995Z,13.30
2022-11-14T13:41:46.578Z,14.70
2022-11-14T13:45:26.312Z,13.10
2022-11-14T13:48:55.192Z,13.55
2022-11-14T13:52:01.368Z,13.18
2022-11-14T13:55:08.486Z,12.30
2022-11-14T13:58:29.081Z,11.63
2022-11-14T14:01:49.255Z,12.75
2022-11-14T14:05:05.047Z,12.52
2022-11-14T14:08:25.578Z,12.52
2022-11-14T14:11:43.621Z,12.88
2022-11-14T14:15:01.630Z,12.73
2022-11-14T14:18:18.511Z,11.70
2022-11-14T14:21:35.481Z,11.73
2022-11-14T14:24:51.703Z,12.20
2022-11-14T14:28:10.144Z,11.43
2022-11-14T14:31:19.869Z,12.05
2022-11-14T14:34:30.381Z,11.27
2022-11-14T14:37:36.276Z,11.32
2022-11-14T14:40:43.722Z,11.77
2022-11-14T14:43:55.968Z,12.00
2022-11-14T14:47:16.603Z,11.57
2022-11-14T14:50:26.490Z,12.63
2022-11-14T14:53:34.085Z,12.20
2022-11-14T14:56:40.354Z,12.38
2022-11-14T14:59:46.469Z,12.20
2022-11-14T15:02:53.478Z,11.77
2022-11-14T15:06:02.552Z,11.10
2022-11-14T15:09:12.272Z,13.37
2022-11-14T15:12:18.285Z,11.87
2022-11-14T15:15:26.239Z,11.77
2022-11-14T15:18:33.943Z,12.23
2022-11-14T15:21:43.184Z,12.40
2022-11-14T15:25:21.275Z,12.40
2022-11-14T15:28:28.698Z,12.10
2022-11-14T15:31:36.866Z,12.03
2022-11-14T15:34:42.680Z,11.97
2022-11-14T15:38:28.952Z,12.63
2022-11-14T15:41:30.279Z,12.60
2022-11-14T15:44:36.396Z,12.77
2022-11-14T15:47:42.538Z,12.33
2022-11-14T15:50:51.841Z,12.57
2022-11-14T15:53:59.173Z,13.40
2022-11-14T15:57:13.273Z,13.80
2022-11-14T16:00:20.201Z,13.10
2022-11-14T16:03:26.140Z,13.90
2022-11-14T16:06:33.457Z,13.33
2022-11-14T16:09:40.918Z,12.53
2022-11-14T16:12:52.193Z,14.13
2022-11-14T16:15:58.370Z,13.87
2022-11-14T16:19:04.483Z,13.87
2022-11-14T16:22:13.825Z,13.93
2022-11-14T16:25:23.781Z,13.90
2022-11-14T16:28:29.681Z,15.20
2022-11-14T16:31:35.868Z,14.83
2022-11-14T16:34:41.763Z,13.73
2022-11-14T16:37:48.184Z,13.23
2022-11-14T16:40:55.243Z,14.43
2022-11-14T16:44:01.164Z,13.50
2022-11-14T16:47:06.761Z,13.90
2022-11-14T16:50:12.830Z,15.63
2022-11-14T16:53:18.476Z,14.93
2022-11-14T16:56:25.801Z,14.23
2022-11-14T16:59:32.084Z,14.33
2022-11-14T17:02:38.125Z,15.23
2022-11-14T17:05:45.359Z,14.43
2022-11-14T17:08:54.769Z,15.00
2022-11-14T17:12:02.371Z,13.40
2022-11-14T17:15:09.173Z,14.87
2022-11-14T17:18:15.278Z,14.47
2022-11-14T17:21:21.918Z,15.07
2022-11-14T17:24:31.396Z,15.07
2022-11-14T17:27:38.754Z,14.43
2022-11-14T17:30:44.897Z,15.00
2022-11-14T17:33:55.021Z,15.47
2022-11-14T17:37:01.104Z,14.33
2022-11-14T17:40:12.741Z,13.97
2022-11-14T17:43:22.775Z,14.00
2022-11-14T17:46:29.542Z,14.70
2022-11-14T17:49:35.730Z,14.77
2022-11-14T17:52:42.059Z,14.20
2022-11-14T17:55:48.714Z,15.27
2022-11-14T17:58:56.014Z,16.33
2022-11-14T18:02:02.185Z,16.63
2022-11-14T18:05:08.867Z,15.87
2022-11-14T18:08:15.272Z,18.80
2022-11-14T18:11:21.048Z,18.53
2022-11-14T18:14:28.050Z,19.60
2022-11-14T18:17:34.153Z,19.23
2022-11-14T18:20:39.739Z,15.23
2022-11-14T18:23:50.922Z,16.47
2022-11-14T18:26:58.987Z,15.53
2022-11-14T18:30:26.814Z,15.93
2022-11-14T18:33:33.262Z,15.70
2022-11-14T18:36:39.019Z,16.20
2022-11-14T18:39:44.876Z,15.50
2022-11-14T18:42:50.856Z,19.53
2022-11-14T18:45:57.758Z,15.50
2022-11-14T18:49:03.864Z,14.67
2022-11-14T18:52:17.187Z,16.23
2022-11-14T18:55:24.253Z,15.30
2022-11-14T18:58:30.630Z,14.60
2022-11-14T19:01:38.187Z,14.07
2022-11-14T19:04:44.078Z,15.60
2022-11-14T19:07:52.346Z,15.17
2022-11-14T19:11:02.229Z,15.90
2022-11-14T19:14:08.306Z,15.13
2022-11-14T19:17:20.579Z,16.27
2022-11-14T19:20:26.390Z,15.83
2022-11-14T19:23:32.696Z,15.50
2022-11-14T19:26:39.339Z,16.07
2022-11-14T19:29:45.066Z,15.50
2022-11-14T19:32:52.241Z,15.57
2022-11-14T19:35:57.945Z,14.17
2022-11-14T19:39:04.114Z,15.50
2022-11-14T19:42:09.929Z,16.13
2022-11-14T19:45:15.941Z,15.20
2022-11-14T19:48:23.306Z,16.23
2022-11-14T19:51:30.402Z,15.50
2022-11-14T19:54:36.080Z,14.80
2022-11-14T19:57:42.052Z,15.20
2022-11-14T20:00:48.152Z,14.30
2022-11-14T20:03:57.000Z,14.77
2022-11-14T20:07:03.155Z,15.50
2022-11-14T20:10:09.848Z,14.83
2022-11-14T20:13:15.850Z,14.90
2022-11-14T20:16:23.850Z,15.83
2022-11-14T20:19:31.155Z,15.93
2022-11-14T20:22:37.433Z,14.93
2022-11-14T20:25:43.388Z,15.37
2022-11-14T20:28:52.842Z,15.67
2022-11-14T20:31:58.918Z,15.53
2022-11-14T20:35:07.144Z,16.47
2022-11-14T20:38:13.371Z,15.63
2022-11-14T20:41:20.011Z,16.30
2022-11-14T20:44:25.850Z,15.83
2022-11-14T20:47:32.004Z,16.70
2022-11-14T20:50:39.196Z,16.77
2022-11-14T20:53:46.021Z,15.60
2022-11-14T20:56:51.811Z,15.43
2022-11-14T20:59:57.636Z,15.60
2022-11-14T21:03:03.717Z,16.13
2022-11-14T21:06:12.408Z,16.17
2022-11-14T21:09:18.344Z,16.53
2022-11-14T21:12:24.499Z,17.43
2022-11-14T21:15:30.291Z,17.47
2022-11-14T21:18:38.293Z,16.40
2022-11-14T21:21:45.586Z,16.90
2022-11-14T21:24:51.890Z,16.37
2022-11-14T21:27:57.745Z,17.17
2022-11-14T21:31:13.137Z,17.77
2022-11-14T21:34:18.884Z,15.93
2022-11-14T21:37:25.985Z,17.80
2022-11-14T21:40:32.078Z,16.27
2022-11-14T21:43:37.921Z,17.20
2022-11-14T21:46:46.214Z,16.73
2022-11-14T21:49:59.906Z,16.23
2022-11-14T21:53:15.836Z,17.23
2022-11-14T21:56:24.109Z,16.83
2022-11-14T21:59:31.369Z,16.97
2022-11-14T22:02:54.575Z,16.47
2022-11-14T22:06:00.764Z,16.40
2022-11-14T22:09:08.647Z,17.80
2022-11-14T22:12:14.751Z,16.47
2022-11-14T22:15:20.607Z,18.13
2022-11-14T22:18:26.387Z,17.43
2022-11-14T22:21:32.120Z,17.67
2022-11-14T22:24:39.147Z,32.97
2022-11-14T22:27:45.100Z,18.13
2022-11-14T22:31:01.101Z,16.93
2022-11-14T22:34:07.960Z,17.00
2022-11-14T22:37:14.329Z,18.27
2022-11-14T22:40:21.693Z,17.87
2022-11-14T22:43:29.439Z,16.87
2022-11-14T22:46:35.539Z,17.33
2022-11-14T22:49:41.263Z,16.87
2022-11-14T22:52:47.104Z,17.67
2022-11-14T22:55:54.202Z,16.80
2022-11-14T22:59:01.258Z,16.07
2022-11-14T23:02:07.109Z,16.03
2022-11-14T23:05:13.033Z,16.97
2022-11-14T23:08:20.309Z,16.90
2022-11-14T23:11:29.645Z,15.80
2022-11-14T23:14:35.580Z,15.40
2022-11-14T23:17:41.455Z,15.97
2022-11-14T23:20:47.928Z,15.83
2022-11-14T23:23:54.446Z,15.67
2022-11-14T23:27:01.915Z,16.07
2022-11-14T23:30:09.203Z,16.03
2022-11-14T23:33:15.232Z,16.23
2022-11-14T23:36:21.271Z,16.17
2022-11-14T23:39:27.208Z,16.77
2022-11-14T23:42:34.373Z,16.80
2022-11-14T23:45:43.642Z,16.63
2022-11-14T23:48:50.684Z,17.37
2022-11-14T23:51:56.574Z,18.53
2022-11-14T23:55:02.904Z,16.20
2022-11-14T23:58:10.335Z,17.90
